createdAt,value
2022-10-06T00:00:52.276Z,1010.502
2022-10-06T00:05:54.670Z,1010.496
2022-10-06T00:10:57.228Z,1010.578
2022-10-06T00:15:59.996Z,1010.607
2022-10-06T00:21:02.572Z,1010.676
2022-10-06T00:26:05.336Z,1010.703
2022-10-06T00:31:08.204Z,1010.771
2022-10-06T00:36:10.850Z,1010.793
2022-10-06T00:41:13.324Z,1010.846
2022-10-06T00:46:16.363Z,1010.878
2022-10-06T00:56:21.690Z,1010.838
2022-10-06T01:01:24.307Z,1010.928
2022-10-06T01:06:27.910Z,1010.914
2022-10-06T01:11:33.475Z,1011.026
2022-10-06T01:16:36.227Z,1011.137
2022-10-06T01:21:38.859Z,1011.069
2022-10-06T01:26:41.434Z,1011.081
2022-10-06T01:36:46.708Z,1011.181
2022-10-06T01:41:49.366Z,1011.173
2022-10-06T01:46:52.657Z,1011.232
2022-10-06T01:56:57.912Z,1011.248
2022-10-06T02:02:00.650Z,1011.234
2022-10-06T02:07:03.109Z,1011.162
2022-10-06T02:12:05.787Z,1011.195
2022-10-06T02:17:08.262Z,1011.294
2022-10-06T02:22:10.820Z,1011.363
2022-10-06T02:27:13.691Z,1011.447
2022-10-06T02:32:16.407Z,1011.462
2022-10-06T02:37:18.956Z,1011.492
2022-10-06T02:42:21.575Z,1011.451
2022-10-06T02:47:24.148Z,1011.582
2022-10-06T02:52:26.688Z,1011.633
2022-10-06T02:57:29.499Z,1011.638
2022-10-06T03:02:32.272Z,1011.733
2022-10-06T03:07:34.840Z,1011.87
2022-10-06T03:12:37.664Z,1011.882
2022-10-06T03:17:40.085Z,1011.912
2022-10-06T03:22:42.934Z,1011.982
2022-10-06T03:27:45.785Z,1012.108
2022-10-06T03:32:48.614Z,1012.267
2022-10-06T03:37:51.329Z,1012.566
2022-10-06T03:42:53.996Z,1012.617
2022-10-06T03:47:56.554Z,1012.861
2022-10-06T03:52:59.150Z,1012.871
2022-10-06T03:58:01.906Z,1012.913
2022-10-06T04:03:04.357Z,1013.15
2022-10-06T04:08:06.774Z,1013.16
2022-10-06T04:13:09.519Z,1013.368
2022-10-06T04:18:12.076Z,1013.475
2022-10-06T04:23:14.872Z,1013.589
2022-10-06T04:28:17.743Z,1013.358
2022-10-06T04:33:20.068Z,1013.557
2022-10-06T04:38:22.861Z,1013.612
2022-10-06T04:43:25.597Z,1013.823
2022-10-06T04:48:28.316Z,1013.996
2022-10-06T04:53:30.652Z,1013.907
2022-10-06T04:58:33.439Z,1014.056
2022-10-06T05:13:41.675Z,1014.467
2022-10-06T05:18:44.463Z,1014.582
2022-10-06T05:23:47.167Z,1014.723
2022-10-06T05:28:50.010Z,1014.737
2022-10-06T05:33:52.802Z,1014.967
2022-10-06T05:38:55.611Z,1015.117
2022-10-06T05:43:58.264Z,1015.25
2022-10-06T05:49:00.851Z,1015.401
2022-10-06T05:54:03.575Z,1015.615
2022-10-06T05:59:05.957Z,1015.722
2022-10-06T06:04:08.496Z,1015.945
2022-10-06T06:09:11.158Z,1015.976
2022-10-06T06:14:14.075Z,1016.1
2022-10-06T06:19:16.871Z,1016.422
2022-10-06T06:24:19.527Z,1016.442
2022-10-06T06:29:22.162Z,1016.608
2022-10-06T06:34:24.817Z,1016.716
2022-10-06T06:39:27.420Z,1016.847
2022-10-06T06:44:30.314Z,1016.976
2022-10-06T06:49:35.818Z,1017.027
2022-10-06T06:54:41.284Z,1017.245
2022-10-06T06:59:43.839Z,1017.311
2022-10-06T07:04:46.941Z,1017.403
2022-10-06T07:09:49.658Z,1017.543
2022-10-06T07:14:52.441Z,1017.583
2022-10-06T07:19:55.082Z,1017.726
2022-10-06T07:24:57.838Z,1017.77
2022-10-06T07:35:06.132Z,1018.025
2022-10-06T07:40:09.253Z,1018.023
2022-10-06T07:45:11.961Z,1018.149
2022-10-06T07:50:14.471Z,1018.195
2022-10-06T07:55:16.847Z,1018.247
2022-10-06T08:00:19.527Z,1018.371
2022-10-06T08:05:22.210Z,1018.305
2022-10-06T08:10:24.802Z,1018.608
2022-10-06T08:15:36.370Z,1018.608
2022-10-06T08:20:39.099Z,1018.598
2022-10-06T08:25:41.367Z,1018.718
2022-10-06T08:30:58.344Z,1018.872
2022-10-06T08:36:01.061Z,1018.878
2022-10-06T08:41:03.604Z,1019.107
2022-10-06T08:46:06.194Z,1019.102
2022-10-06T08:51:12.286Z,1019.152
2022-10-06T08:56:17.927Z,1019.268
2022-10-06T09:01:23.798Z,1019.344
2022-10-06T09:06:26.365Z,1019.363
2022-10-06T09:11:29.007Z,1019.386
2022-10-06T09:21:37.288Z,1019.694
2022-10-06T09:26:39.769Z,1019.649
2022-10-06T09:31:42.753Z,1019.634
2022-10-06T09:36:45.074Z,1019.7
2022-10-06T09:41:47.957Z,1019.766
2022-10-06T09:56:56.550Z,1019.852
2022-10-06T10:01:59.161Z,1019.842
2022-10-06T10:07:01.899Z,1020.051
2022-10-06T10:12:04.484Z,1020.055
2022-10-06T10:17:07.075Z,1020.191
2022-10-06T10:37:18.792Z,1020.153
2022-10-06T10:42:21.214Z,1020.405
2022-10-06T10:47:23.997Z,1020.256
2022-10-06T10:52:26.412Z,1020.19
2022-10-06T10:57:33.723Z,1020.328
2022-10-06T11:07:39.225Z,1020.168
2022-10-06T11:17:48.186Z,1020.508
2022-10-06T11:22:51.114Z,1020.405
2022-10-06T11:27:53.822Z,1020.583
2022-10-06T11:38:02.036Z,1020.696
2022-10-06T11:43:04.330Z,1020.756
2022-10-06T11:48:09.969Z,1020.804
2022-10-06T11:53:13.135Z,1020.771
2022-10-06T11:58:41.726Z,1020.735
2022-10-06T12:03:18.020Z,1020.814
2022-10-06T12:08:20.824Z,1020.703
2022-10-06T12:14:12.261Z,1020.667
2022-10-06T12:18:25.762Z,1020.688
2022-10-06T12:23:28.676Z,1020.67
2022-10-06T12:28:31.537Z,1020.696
2022-10-06T12:33:33.985Z,1020.79
2022-10-06T12:38:36.812Z,1020.83
2022-10-06T12:43:39.300Z,1020.825
2022-10-06T12:48:41.898Z,1020.77
2022-10-06T12:53:44.544Z,1020.874
2022-10-06T13:03:52.531Z,1020.916
2022-10-06T13:08:55.175Z,1020.97
2022-10-06T13:24:03.339Z,1020.986
2022-10-06T13:29:08.689Z,1020.987
2022-10-06T13:34:11.393Z,1021.082
2022-10-06T13:39:14.091Z,1021.128
2022-10-06T13:44:16.668Z,1021.214
2022-10-06T13:49:19.868Z,1021.132
2022-10-06T13:54:22.484Z,1021.117
2022-10-06T13:59:25.066Z,1021.184
2022-10-06T14:04:27.778Z,1021.137
2022-10-06T14:09:30.451Z,1021.185
2022-10-06T14:14:33.683Z,1021.296
2022-10-06T14:19:39.588Z,1021.308
2022-10-06T14:24:42.371Z,1021.35
2022-10-06T14:29:47.897Z,1021.246
2022-10-06T14:34:50.631Z,1021.334
2022-10-06T14:39:53.943Z,1021.212
2022-10-06T14:44:55.886Z,1021.357
2022-10-06T14:49:58.495Z,1021.343
2022-10-06T14:55:01.467Z,1021.389
2022-10-06T15:00:03.782Z,1021.348
2022-10-06T15:10:08.824Z,1021.364
2022-10-06T15:15:11.584Z,1021.349
2022-10-06T15:25:16.799Z,1021.436
2022-10-06T15:30:19.540Z,1021.542
2022-10-06T15:35:22.056Z,1021.516
2022-10-06T15:45:27.587Z,1021.505
2022-10-06T15:50:30.136Z,1021.501
2022-10-06T15:55:32.846Z,1021.482
2022-10-06T16:00:35.476Z,1021.535
2022-10-06T16:05:38.092Z,1021.544
2022-10-06T16:10:40.630Z,1021.562
2022-10-06T16:15:43.296Z,1021.666
2022-10-06T16:20:45.856Z,1021.685
2022-10-06T16:25:48.567Z,1021.78
2022-10-06T16:30:50.985Z,1021.772
2022-10-06T16:35:54.108Z,1021.814
2022-10-06T16:40:56.970Z,1021.891
2022-10-06T16:46:08.352Z,1021.821
2022-10-06T16:51:11.702Z,1021.94
2022-10-06T17:01:16.978Z,1022.048
2022-10-06T17:06:25.327Z,1022.104
2022-10-06T17:11:28.087Z,1022.173
2022-10-06T17:16:30.873Z,1022.188
2022-10-06T17:21:45.352Z,1022.144
2022-10-06T17:26:35.971Z,1022.187
2022-10-06T17:31:38.604Z,1022.224
2022-10-06T17:41:43.742Z,1022.148
2022-10-06T17:46:46.336Z,1022.141
2022-10-06T17:51:49.087Z,1022.213
2022-10-06T17:56:51.714Z,1022.255
2022-10-06T18:01:54.377Z,1022.265
2022-10-06T18:06:56.940Z,1022.249
2022-10-06T18:11:59.952Z,1022.26
2022-10-06T18:17:02.652Z,1022.31
2022-10-06T18:22:05.192Z,1022.292
2022-10-06T18:27:08.262Z,1022.338
2022-10-06T18:37:21.830Z,1022.318
2022-10-06T18:42:25.451Z,1022.313
2022-10-06T18:47:28.058Z,1022.356
2022-10-06T18:52:30.627Z,1022.373
2022-10-06T18:57:33.113Z,1022.383
2022-10-06T19:02:36.205Z,1022.356
2022-10-06T19:07:44.331Z,1022.467
2022-10-06T19:12:46.660Z,1022.548
2022-10-06T19:17:49.289Z,1022.503
2022-10-06T19:22:51.938Z,1022.57
2022-10-06T19:27:54.498Z,1022.596
2022-10-06T19:32:57.131Z,1022.624
2022-10-06T19:37:59.600Z,1022.596
2022-10-06T19:43:02.316Z,1022.639
2022-10-06T19:48:04.929Z,1022.706
2022-10-06T19:53:07.489Z,1022.761
2022-10-06T19:58:10.018Z,1022.68
2022-10-06T20:03:12.979Z,1022.704
2022-10-06T20:08:15.506Z,1022.756
2022-10-06T20:13:18.320Z,1022.829
2022-10-06T20:18:20.928Z,1022.854
2022-10-06T20:23:23.709Z,1022.897
2022-10-06T20:33:29.358Z,1022.831
2022-10-06T20:38:31.879Z,1022.875
2022-10-06T20:43:34.362Z,1022.942
2022-10-06T20:58:42.317Z,1022.978
2022-10-06T21:03:44.823Z,1022.946
2022-10-06T21:08:47.459Z,1022.891
2022-10-06T21:13:50.123Z,1022.951
2022-10-06T21:18:52.636Z,1022.885
2022-10-06T21:23:55.430Z,1022.886
2022-10-06T21:34:00.548Z,1022.871
2022-10-06T21:39:03.219Z,1022.762
2022-10-06T21:44:08.751Z,1022.765
2022-10-06T21:49:11.428Z,1022.682
2022-10-06T21:54:13.876Z,1022.749
2022-10-06T21:59:16.567Z,1022.72
2022-10-06T22:09:24.696Z,1022.699
2022-10-06T22:19:29.990Z,1022.654
2022-10-06T22:24:32.603Z,1022.632
2022-10-06T22:29:35.264Z,1022.571
2022-10-06T22:34:38.190Z,1022.559
2022-10-06T22:39:40.535Z,1022.508
2022-10-06T22:44:43.255Z,1022.524
2022-10-06T22:49:45.947Z,1022.501
2022-10-06T22:54:48.599Z,1022.448
2022-10-06T22:59:51.272Z,1022.45
2022-10-06T23:04:53.813Z,1022.404
2022-10-06T23:14:58.987Z,1022.4
2022-10-06T23:20:01.669Z,1022.331
2022-10-06T23:25:04.209Z,1022.302
2022-10-06T23:35:09.569Z,1022.282
2022-10-06T23:40:11.906Z,1022.306
2022-10-06T23:45:14.557Z,1022.262
2022-10-06T23:50:19.697Z,1022.325
2022-10-06T23:55:22.340Z,1022.327
